sensor_id;sensor_type;location;lat;lon;timestamp;temperature;humidity
39189;DHT22;24915;50.858;4.376;2023-04-15T00:01:21;11.30;99.90
39189;DHT22;24915;50.858;4.376;2023-04-15T00:03:49;11.20;99.90
39189;DHT22;24915;50.858;4.376;2023-04-15T00:06:14;11.20;99.90
39189;DHT22;24915;50.858;4.376;2023-04-15T00:08:40;11.20;99.90
39189;DHT22;24915;50.858;4.376;2023-04-15T00:11:06;11.30;99.90
39189;DHT22;24915;50.858;4.376;2023-04-15T00:13:32;11.30;99.90
39189;DHT22;24915;50.858;4.376;2023-04-15T00:16:01;11.30;99.90
39189;DHT22;24915;50.858;4.376;2023-04-15T00:18:27;11.30;99.90
39189;DHT22;24915;50.858;4.376;2023-04-15T00:20:54;11.30;99.90
39189;DHT22;24915;50.858;4.376;2023-04-15T00:23:19;11.30;99.90
39189;DHT22;24915;50.858;4.376;2023-04-15T00:25:45;11.30;99.90
39189;DHT22;24915;50.858;4.376;2023-04-15T00:28:11;11.30;99.90
39189;DHT22;24915;50.858;4.376;2023-04-15T00:30:37;11.30;99.90
39189;DHT22;24915;50.858;4.376;2023-04-15T00:33:03;11.20;99.90
39189;DHT22;24915;50.858;4.376;2023-04-15T00:35:29;11.20;99.90
39189;DHT22;24915;50.858;4.376;2023-04-15T00:37:57;11.20;99.90
39189;DHT22;24915;50.858;4.376;2023-04-15T00:40:23;11.20;99.90
39189;DHT22;24915;50.858;4.376;2023-04-15T00:42:49;11.20;99.90
39189;DHT22;24915;50.858;4.376;2023-04-15T00:45:15;11.20;99.90
39189;DHT22;24915;50.858;4.376;2023-04-15T00:47:42;11.20;99.90
39189;DHT22;24915;50.858;4.376;2023-04-15T00:50:09;11.20;99.90
39189;DHT22;24915;50.858;4.376;2023-04-15T00:52:35;11.20;99.90
39189;DHT22;24915;50.858;4.376;2023-04-15T00:55:01;11.20;99.90
39189;DHT22;24915;50.858;4.376;2023-04-15T00:57:27;11.20;99.90
39189;DHT22;24915;50.858;4.376;2023-04-15T00:59:54;11.20;99.90
39189;DHT22;24915;50.858;4.376;2023-04-15T01:02:21;11.20;99.90
39189;DHT22;24915;50.858;4.376;2023-04-15T01:04:47;11.20;99.90
39189;DHT22;24915;50.858;4.376;2023-04-15T01:07:12;11.20;99.90
39189;DHT22;24915;50.858;4.376;2023-04-15T01:09:38;11.20;99.90
39189;DHT22;24915;50.858;4.376;2023-04-15T01:12:05;11.20;99.90
39189;DHT22;24915;50.858;4.376;2023-04-15T01:14:32;11.10;99.90
39189;DHT22;24915;50.858;4.376;2023-04-15T01:16:58;11.10;99.90
39189;DHT22;24915;50.858;4.376;2023-04-15T01:19:24;11.10;99.90
39189;DHT22;24915;50.858;4.376;2023-04-15T01:21:50;11.10;99.90
39189;DHT22;24915;50.858;4.376;2023-04-15T01:24:17;11.10;99.90
39189;DHT22;24915;50.858;4.376;2023-04-15T01:26:44;11.10;99.90
39189;DHT22;24915;50.858;4.376;2023-04-15T01:29:10;11.10;99.90
39189;DHT22;24915;50.858;4.376;2023-04-15T01:31:36;11.10;99.90
39189;DHT22;24915;50.858;4.376;2023-04-15T01:34:02;11.00;99.90
39189;DHT22;24915;50.858;4.376;2023-04-15T01:36:28;11.00;99.90
39189;DHT22;24915;50.858;4.376;2023-04-15T01:38:55;11.10;99.90
39189;DHT22;24915;50.858;4.376;2023-04-15T01:41:24;11.00;99.90
39189;DHT22;24915;50.858;4.376;2023-04-15T01:43:51;11.00;99.90
39189;DHT22;24915;50.858;4.376;2023-04-15T01:46:17;11.00;99.90
39189;DHT22;24915;50.858;4.376;2023-04-15T01:48:42;11.00;99.90
39189;DHT22;24915;50.858;4.376;2023-04-15T01:51:08;11.00;99.90
39189;DHT22;24915;50.858;4.376;2023-04-15T01:53:34;10.90;99.90
39189;DHT22;24915;50.858;4.376;2023-04-15T01:56:00;10.90;99.90
39189;DHT22;24915;50.858;4.376;2023-04-15T01:58:25;10.90;99.90
39189;DHT22;24915;50.858;4.376;2023-04-15T02:00:51;10.90;99.90
39189;DHT22;24915;50.858;4.376;2023-04-15T02:03:18;10.90;99.90
39189;DHT22;24915;50.858;4.376;2023-04-15T02:05:43;10.90;99.90
39189;DHT22;24915;50.858;4.376;2023-04-15T02:08:09;10.90;99.90
39189;DHT22;24915;50.858;4.376;2023-04-15T02:10:35;10.90;99.90
39189;DHT22;24915;50.858;4.376;2023-04-15T02:13:00;10.90;99.90
39189;DHT22;24915;50.858;4.376;2023-04-15T02:15:26;10.80;99.90
39189;DHT22;24915;50.858;4.376;2023-04-15T02:17:52;10.80;99.90
39189;DHT22;24915;50.858;4.376;2023-04-15T02:20:19;10.80;99.90
39189;DHT22;24915;50.858;4.376;2023-04-15T02:22:46;10.80;99.90
39189;DHT22;24915;50.858;4.376;2023-04-15T02:25:13;10.80;99.90
39189;DHT22;24915;50.858;4.376;2023-04-15T02:27:38;10.80;99.90
39189;DHT22;24915;50.858;4.376;2023-04-15T02:30:05;10.80;99.90
39189;DHT22;24915;50.858;4.376;2023-04-15T02:32:31;10.80;99.90
39189;DHT22;24915;50.858;4.376;2023-04-15T02:35:02;10.80;99.90
39189;DHT22;24915;50.858;4.376;2023-04-15T02:37:28;10.80;99.90
39189;DHT22;24915;50.858;4.376;2023-04-15T02:39:56;10.80;99.90
39189;DHT22;24915;50.858;4.376;2023-04-15T02:42:21;10.80;99.90
39189;DHT22;24915;50.858;4.376;2023-04-15T02:44:47;10.80;99.90
39189;DHT22;24915;50.858;4.376;2023-04-15T02:47:13;10.80;99.90
39189;DHT22;24915;50.858;4.376;2023-04-15T02:49:39;10.80;99.90
39189;DHT22;24915;50.858;4.376;2023-04-15T02:52:05;10.70;99.90
39189;DHT22;24915;50.858;4.376;2023-04-15T02:54:31;10.70;99.90
39189;DHT22;24915;50.858;4.376;2023-04-15T02:56:58;10.70;99.90
39189;DHT22;24915;50.858;4.376;2023-04-15T02:59:24;10.70;99.90
39189;DHT22;24915;50.858;4.376;2023-04-15T03:01:50;10.70;99.90
39189;DHT22;24915;50.858;4.376;2023-04-15T03:04:16;10.70;99.90
39189;DHT22;24915;50.858;4.376;2023-04-15T03:06:41;10.70;99.90
39189;DHT22;24915;50.858;4.376;2023-04-15T03:09:07;10.70;99.90
39189;DHT22;24915;50.858;4.376;2023-04-15T03:11:33;10.70;99.90
39189;DHT22;24915;50.858;4.376;2023-04-15T03:13:59;10.70;99.90
39189;DHT22;24915;50.858;4.376;2023-04-15T03:16:25;10.70;99.90
39189;DHT22;24915;50.858;4.376;2023-04-15T03:18:51;10.70;99.90
39189;DHT22;24915;50.858;4.376;2023-04-15T03:21:17;10.70;99.90
39189;DHT22;24915;50.858;4.376;2023-04-15T03:23:44;10.70;99.90
39189;DHT22;24915;50.858;4.376;2023-04-15T03:26:23;10.70;99.90
39189;DHT22;24915;50.858;4.376;2023-04-15T03:28:49;10.70;99.90
39189;DHT22;24915;50.858;4.376;2023-04-15T03:31:14;10.70;99.90
39189;DHT22;24915;50.858;4.376;2023-04-15T03:33:40;10.70;99.90
39189;DHT22;24915;50.858;4.376;2023-04-15T03:36:06;10.60;99.90
39189;DHT22;24915;50.858;4.376;2023-04-15T03:38:31;10.60;99.90
39189;DHT22;24915;50.858;4.376;2023-04-15T03:40:57;10.60;99.90
39189;DHT22;24915;50.858;4.376;2023-04-15T03:43:23;10.60;99.90
39189;DHT22;24915;50.858;4.376;2023-04-15T03:45:48;10.50;99.90
39189;DHT22;24915;50.858;4.376;2023-04-15T03:48:14;10.50;99.90
39189;DHT22;24915;50.858;4.376;2023-04-15T03:50:39;10.50;99.90
39189;DHT22;24915;50.858;4.376;2023-04-15T03:53:05;10.50;99.90
39189;DHT22;24915;50.858;4.376;2023-04-15T03:55:31;10.50;99.90
39189;DHT22;24915;50.858;4.376;2023-04-15T03:57:56;10.40;99.90
39189;DHT22;24915;50.858;4.376;2023-04-15T04:00:22;10.40;99.90
39189;DHT22;24915;50.858;4.376;2023-04-15T04:02:47;10.30;99.90
39189;DHT22;24915;50.858;4.376;2023-04-15T04:05:13;10.30;99.90
39189;DHT22;24915;50.858;4.376;2023-04-15T04:07:39;10.30;99.90
39189;DHT22;24915;50.858;4.376;2023-04-15T04:10:05;10.30;99.90
39189;DHT22;24915;50.858;4.376;2023-04-15T04:12:31;10.30;99.90
39189;DHT22;24915;50.858;4.376;2023-04-15T04:14:56;10.30;99.90
39189;DHT22;24915;50.858;4.376;2023-04-15T04:17:22;10.30;99.90
39189;DHT22;24915;50.858;4.376;2023-04-15T04:19:47;10.30;99.90
39189;DHT22;24915;50.858;4.376;2023-04-15T04:22:13;10.30;99.90
39189;DHT22;24915;50.858;4.376;2023-04-15T04:24:39;10.30;99.90
39189;DHT22;24915;50.858;4.376;2023-04-15T04:27:04;10.30;99.90
39189;DHT22;24915;50.858;4.376;2023-04-15T04:29:30;10.30;99.90
39189;DHT22;24915;50.858;4.376;2023-04-15T04:31:56;10.30;99.90
39189;DHT22;24915;50.858;4.376;2023-04-15T04:34:21;10.30;99.90
39189;DHT22;24915;50.858;4.376;2023-04-15T04:36:47;10.30;99.90
39189;DHT22;24915;50.858;4.376;2023-04-15T04:39:13;10.20;99.90
39189;DHT22;24915;50.858;4.376;2023-04-15T04:41:38;10.20;99.90
39189;DHT22;24915;50.858;4.376;2023-04-15T04:44:04;10.20;99.90
39189;DHT22;24915;50.858;4.376;2023-04-15T04:46:29;10.20;99.90
39189;DHT22;24915;50.858;4.376;2023-04-15T04:48:55;10.10;99.90
39189;DHT22;24915;50.858;4.376;2023-04-15T04:51:21;10.10;99.90
39189;DHT22;24915;50.858;4.376;2023-04-15T04:53:46;10.10;99.90
39189;DHT22;24915;50.858;4.376;2023-04-15T04:56:12;10.10;99.90
39189;DHT22;24915;50.858;4.376;2023-04-15T04:58:38;10.10;99.90
39189;DHT22;24915;50.858;4.376;2023-04-15T05:01:05;10.10;99.90
39189;DHT22;24915;50.858;4.376;2023-04-15T05:03:30;10.10;99.90
39189;DHT22;24915;50.858;4.376;2023-04-15T05:05:56;10.10;99.90
39189;DHT22;24915;50.858;4.376;2023-04-15T05:08:22;10.10;99.90
39189;DHT22;24915;50.858;4.376;2023-04-15T05:10:47;10.10;99.90
39189;DHT22;24915;50.858;4.376;2023-04-15T05:13:13;10.10;99.90
39189;DHT22;24915;50.858;4.376;2023-04-15T05:15:38;10.10;99.90
39189;DHT22;24915;50.858;4.376;2023-04-15T05:18:05;10.10;99.90
39189;DHT22;24915;50.858;4.376;2023-04-15T05:20:31;10.20;99.90
39189;DHT22;24915;50.858;4.376;2023-04-15T05:22:57;10.10;99.90
39189;DHT22;24915;50.858;4.376;2023-04-15T05:25:22;10.10;99.90
39189;DHT22;24915;50.858;4.376;2023-04-15T05:27:48;10.10;99.90
39189;DHT22;24915;50.858;4.376;2023-04-15T05:30:14;10.10;99.90
39189;DHT22;24915;50.858;4.376;2023-04-15T05:32:40;10.10;99.90
39189;DHT22;24915;50.858;4.376;2023-04-15T05:35:06;10.10;99.90
39189;DHT22;24915;50.858;4.376;2023-04-15T05:37:32;10.10;99.90
39189;DHT22;24915;50.858;4.376;2023-04-15T05:39:58;10.10;99.90
39189;DHT22;24915;50.858;4.376;2023-04-15T05:42:23;10.10;99.90
39189;DHT22;24915;50.858;4.376;2023-04-15T05:44:49;10.10;99.90
39189;DHT22;24915;50.858;4.376;2023-04-15T05:47:15;10.10;99.90
39189;DHT22;24915;50.858;4.376;2023-04-15T05:49:41;10.10;99.90
39189;DHT22;24915;50.858;4.376;2023-04-15T05:52:06;10.10;99.90
39189;DHT22;24915;50.858;4.376;2023-04-15T05:54:32;10.10;99.90
39189;DHT22;24915;50.858;4.376;2023-04-15T05:56:57;10.10;99.90
39189;DHT22;24915;50.858;4.376;2023-04-15T05:59:23;10.00;99.90
39189;DHT22;24915;50.858;4.376;2023-04-15T06:01:49;10.00;99.90
39189;DHT22;24915;50.858;4.376;2023-04-15T06:04:16;10.00;99.90
39189;DHT22;24915;50.858;4.376;2023-04-15T06:06:42;10.00;99.90
39189;DHT22;24915;50.858;4.376;2023-04-15T06:09:08;10.00;99.90
39189;DHT22;24915;50.858;4.376;2023-04-15T06:11:33;10.10;99.90
39189;DHT22;24915;50.858;4.376;2023-04-15T06:13:59;10.10;99.90
39189;DHT22;24915;50.858;4.376;2023-04-15T06:16:24;10.10;99.90
39189;DHT22;24915;50.858;4.376;2023-04-15T06:18:50;10.20;99.90
39189;DHT22;24915;50.858;4.376;2023-04-15T06:21:16;10.20;99.90
39189;DHT22;24915;50.858;4.376;2023-04-15T06:23:41;10.20;99.90
39189;DHT22;24915;50.858;4.376;2023-04-15T06:26:07;10.20;99.90
39189;DHT22;24915;50.858;4.376;2023-04-15T06:28:33;10.30;99.90
39189;DHT22;24915;50.858;4.376;2023-04-15T06:30:59;10.30;99.90
39189;DHT22;24915;50.858;4.376;2023-04-15T06:33:25;10.40;99.90
39189;DHT22;24915;50.858;4.376;2023-04-15T06:35:51;10.40;99.90
39189;DHT22;24915;50.858;4.376;2023-04-15T06:38:18;10.50;99.90
39189;DHT22;24915;50.858;4.376;2023-04-15T06:40:43;10.50;99.90
39189;DHT22;24915;50.858;4.376;2023-04-15T06:43:09;10.60;99.90
39189;DHT22;24915;50.858;4.376;2023-04-15T06:45:35;10.60;99.90
39189;DHT22;24915;50.858;4.376;2023-04-15T06:48:00;10.70;99.90
39189;DHT22;24915;50.858;4.376;2023-04-15T06:50:26;10.80;99.90
39189;DHT22;24915;50.858;4.376;2023-04-15T06:52:53;10.90;99.90
39189;DHT22;24915;50.858;4.376;2023-04-15T06:55:19;11.00;99.90
39189;DHT22;24915;50.858;4.376;2023-04-15T06:57:45;11.10;99.90
39189;DHT22;24915;50.858;4.376;2023-04-15T07:00:11;11.10;99.90
39189;DHT22;24915;50.858;4.376;2023-04-15T07:02:37;11.20;99.90
39189;DHT22;24915;50.858;4.376;2023-04-15T07:05:03;11.30;99.90
39189;DHT22;24915;50.858;4.376;2023-04-15T07:07:29;11.40;99.90
39189;DHT22;24915;50.858;4.376;2023-04-15T07:09:54;11.60;99.90
39189;DHT22;24915;50.858;4.376;2023-04-15T07:12:20;11.70;99.90
39189;DHT22;24915;50.858;4.376;2023-04-15T07:14:46;11.80;99.90
39189;DHT22;24915;50.858;4.376;2023-04-15T07:17:12;11.90;99.90
39189;DHT22;24915;50.858;4.376;2023-04-15T07:19:37;12.00;99.90
39189;DHT22;24915;50.858;4.376;2023-04-15T07:22:03;12.10;99.90
39189;DHT22;24915;50.858;4.376;2023-04-15T07:24:29;12.20;99.90
39189;DHT22;24915;50.858;4.376;2023-04-15T07:26:55;12.30;99.90
39189;DHT22;24915;50.858;4.376;2023-04-15T07:29:23;12.50;99.90
39189;DHT22;24915;50.858;4.376;2023-04-15T07:31:48;12.60;99.90
39189;DHT22;24915;50.858;4.376;2023-04-15T07:34:14;12.70;99.90
39189;DHT22;24915;50.858;4.376;2023-04-15T07:36:41;12.80;99.90
39189;DHT22;24915;50.858;4.376;2023-04-15T07:39:06;13.00;99.90
39189;DHT22;24915;50.858;4.376;2023-04-15T07:41:32;13.20;99.90
39189;DHT22;24915;50.858;4.376;2023-04-15T07:43:58;13.50;99.90
39189;DHT22;24915;50.858;4.376;2023-04-15T07:46:23;13.80;99.90
39189;DHT22;24915;50.858;4.376;2023-04-15T07:48:52;13.90;99.90
39189;DHT22;24915;50.858;4.376;2023-04-15T07:51:18;14.10;99.90
39189;DHT22;24915;50.858;4.376;2023-04-15T07:53:46;14.30;99.90
39189;DHT22;24915;50.858;4.376;2023-04-15T07:56:12;14.40;99.90
39189;DHT22;24915;50.858;4.376;2023-04-15T07:58:37;14.50;99.90
39189;DHT22;24915;50.858;4.376;2023-04-15T08:01:04;14.60;99.90
39189;DHT22;24915;50.858;4.376;2023-04-15T08:03:29;14.70;99.90
39189;DHT22;24915;50.858;4.376;2023-04-15T08:05:56;14.80;99.90
39189;DHT22;24915;50.858;4.376;2023-04-15T08:08:22;14.80;99.90
39189;DHT22;24915;50.858;4.376;2023-04-15T08:10:48;14.80;99.90
39189;DHT22;24915;50.858;4.376;2023-04-15T08:13:14;14.90;99.90
39189;DHT22;24915;50.858;4.376;2023-04-15T08:15:40;14.80;99.90
39189;DHT22;24915;50.858;4.376;2023-04-15T08:18:06;14.80;99.90
39189;DHT22;24915;50.858;4.376;2023-04-15T08:20:32;14.80;99.90
39189;DHT22;24915;50.858;4.376;2023-04-15T08:22:58;14.80;99.90
39189;DHT22;24915;50.858;4.376;2023-04-15T08:25:24;14.90;99.90
39189;DHT22;24915;50.858;4.376;2023-04-15T08:27:49;15.10;99.90
39189;DHT22;24915;50.858;4.376;2023-04-15T08:30:15;15.10;99.90
39189;DHT22;24915;50.858;4.376;2023-04-15T08:32:48;15.10;99.90
39189;DHT22;24915;50.858;4.376;2023-04-15T08:35:14;15.10;99.90
39189;DHT22;24915;50.858;4.376;2023-04-15T08:37:39;15.00;99.90
39189;DHT22;24915;50.858;4.376;2023-04-15T08:40:06;15.00;99.90
39189;DHT22;24915;50.858;4.376;2023-04-15T08:42:37;15.10;99.90
39189;DHT22;24915;50.858;4.376;2023-04-15T08:45:08;15.20;99.90
39189;DHT22;24915;50.858;4.376;2023-04-15T08:47:36;15.20;99.90
39189;DHT22;24915;50.858;4.376;2023-04-15T08:50:04;15.20;99.90
39189;DHT22;24915;50.858;4.376;2023-04-15T08:52:33;15.40;99.90
39189;DHT22;24915;50.858;4.376;2023-04-15T08:55:01;15.40;99.90
39189;DHT22;24915;50.858;4.376;2023-04-15T08:57:27;15.50;99.90
39189;DHT22;24915;50.858;4.376;2023-04-15T08:59:56;15.60;99.90
39189;DHT22;24915;50.858;4.376;2023-04-15T09:02:23;15.80;99.90
39189;DHT22;24915;50.858;4.376;2023-04-15T09:04:49;16.00;99.90
39189;DHT22;24915;50.858;4.376;2023-04-15T09:07:15;16.20;99.90
39189;DHT22;24915;50.858;4.376;2023-04-15T09:09:41;16.50;99.90
39189;DHT22;24915;50.858;4.376;2023-04-15T09:12:07;16.80;99.90
39189;DHT22;24915;50.858;4.376;2023-04-15T09:14:33;17.10;99.90
39189;DHT22;24915;50.858;4.376;2023-04-15T09:17:03;17.50;99.90
39189;DHT22;24915;50.858;4.376;2023-04-15T09:19:29;17.80;99.90
39189;DHT22;24915;50.858;4.376;2023-04-15T09:21:57;18.00;99.90
39189;DHT22;24915;50.858;4.376;2023-04-15T09:24:23;18.20;99.90
39189;DHT22;24915;50.858;4.376;2023-04-15T09:26:53;18.40;99.90
39189;DHT22;24915;50.858;4.376;2023-04-15T09:29:24;18.70;99.00
39189;DHT22;24915;50.858;4.376;2023-04-15T09:31:51;18.80;97.70
39189;DHT22;24915;50.858;4.376;2023-04-15T09:34:17;19.00;96.30
39189;DHT22;24915;50.858;4.376;2023-04-15T09:39:12;19.40;93.70
39189;DHT22;24915;50.858;4.376;2023-04-15T09:41:38;19.50;93.20
39189;DHT22;24915;50.858;4.376;2023-04-15T09:44:05;19.50;93.10
39189;DHT22;24915;50.858;4.376;2023-04-15T09:46:43;19.60;92.30
39189;DHT22;24915;50.858;4.376;2023-04-15T09:49:11;19.70;92.20
39189;DHT22;24915;50.858;4.376;2023-04-15T09:51:37;19.80;92.10
39189;DHT22;24915;50.858;4.376;2023-04-15T09:54:02;19.90;91.30
39189;DHT22;24915;50.858;4.376;2023-04-15T09:56:37;20.00;91.10
39189;DHT22;24915;50.858;4.376;2023-04-15T09:59:06;20.10;90.80
39189;DHT22;24915;50.858;4.376;2023-04-15T10:01:32;20.20;91.10
39189;DHT22;24915;50.858;4.376;2023-04-15T10:03:58;20.30;90.20
39189;DHT22;24915;50.858;4.376;2023-04-15T10:06:25;20.40;90.70
39189;DHT22;24915;50.858;4.376;2023-04-15T10:08:53;20.40;90.30
39189;DHT22;24915;50.858;4.376;2023-04-15T10:11:19;20.50;90.40
39189;DHT22;24915;50.858;4.376;2023-04-15T10:13:46;20.60;90.20
39189;DHT22;24915;50.858;4.376;2023-04-15T10:16:14;20.80;90.10
39189;DHT22;24915;50.858;4.376;2023-04-15T10:18:45;20.90;89.70
39189;DHT22;24915;50.858;4.376;2023-04-15T10:21:12;21.00;88.20
39189;DHT22;24915;50.858;4.376;2023-04-15T10:23:44;21.10;87.10
39189;DHT22;24915;50.858;4.376;2023-04-15T10:26:11;21.20;85.80
39189;DHT22;24915;50.858;4.376;2023-04-15T10:28:39;21.20;86.90
39189;DHT22;24915;50.858;4.376;2023-04-15T10:31:05;21.30;87.30
39189;DHT22;24915;50.858;4.376;2023-04-15T10:33:32;21.40;87.20
39189;DHT22;24915;50.858;4.376;2023-04-15T10:35:59;21.50;87.20
39189;DHT22;24915;50.858;4.376;2023-04-15T10:41:25;21.70;82.30
39189;DHT22;24915;50.858;4.376;2023-04-15T10:46:35;21.50;79.90
39189;DHT22;24915;50.858;4.376;2023-04-15T10:49:12;21.50;81.50
39189;DHT22;24915;50.858;4.376;2023-04-15T10:51:44;21.60;80.10
39189;DHT22;24915;50.858;4.376;2023-04-15T10:57:15;21.80;76.80
39189;DHT22;24915;50.858;4.376;2023-04-15T11:00:01;22.00;76.10
39189;DHT22;24915;50.858;4.376;2023-04-15T11:02:56;22.00;76.30
39189;DHT22;24915;50.858;4.376;2023-04-15T11:08:03;22.30;72.50
39189;DHT22;24915;50.858;4.376;2023-04-15T11:13:00;22.50;69.20
39189;DHT22;24915;50.858;4.376;2023-04-15T11:15:34;22.40;68.00
39189;DHT22;24915;50.858;4.376;2023-04-15T11:18:24;22.30;68.30
39189;DHT22;24915;50.858;4.376;2023-04-15T11:20:51;22.50;68.00
39189;DHT22;24915;50.858;4.376;2023-04-15T11:23:28;22.70;68.30
39189;DHT22;24915;50.858;4.376;2023-04-15T11:25:55;22.90;67.90
39189;DHT22;24915;50.858;4.376;2023-04-15T11:28:28;23.00;67.20
39189;DHT22;24915;50.858;4.376;2023-04-15T11:30:55;23.20;67.10
39189;DHT22;24915;50.858;4.376;2023-04-15T11:33:21;23.30;65.60
39189;DHT22;24915;50.858;4.376;2023-04-15T11:35:50;23.20;65.10
39189;DHT22;24915;50.858;4.376;2023-04-15T11:38:17;23.30;65.80
39189;DHT22;24915;50.858;4.376;2023-04-15T11:40:43;23.40;64.60
39189;DHT22;24915;50.858;4.376;2023-04-15T11:45:35;24.00;62.10
39189;DHT22;24915;50.858;4.376;2023-04-15T11:48:08;24.10;58.00
39189;DHT22;24915;50.858;4.376;2023-04-15T11:50:35;24.00;55.60
39189;DHT22;24915;50.858;4.376;2023-04-15T11:53:03;24.10;53.80
39189;DHT22;24915;50.858;4.376;2023-04-15T11:55:30;24.10;53.10
39189;DHT22;24915;50.858;4.376;2023-04-15T12:00:32;24.20;55.00
39189;DHT22;24915;50.858;4.376;2023-04-15T12:06:17;23.90;56.20
39189;DHT22;24915;50.858;4.376;2023-04-15T12:08:57;24.00;57.50
39189;DHT22;24915;50.858;4.376;2023-04-15T12:17:06;24.00;54.20
39189;DHT22;24915;50.858;4.376;2023-04-15T12:19:37;24.00;52.60
39189;DHT22;24915;50.858;4.376;2023-04-15T12:22:09;24.30;54.10
39189;DHT22;24915;50.858;4.376;2023-04-15T12:24:36;24.30;54.80
39189;DHT22;24915;50.858;4.376;2023-04-15T12:27:07;24.60;54.80
39189;DHT22;24915;50.858;4.376;2023-04-15T12:29:34;24.70;55.10
39189;DHT22;24915;50.858;4.376;2023-04-15T12:32:10;24.90;54.00
39189;DHT22;24915;50.858;4.376;2023-04-15T12:35:03;24.50;52.50
39189;DHT22;24915;50.858;4.376;2023-04-15T12:37:29;24.40;53.40
39189;DHT22;24915;50.858;4.376;2023-04-15T12:39:55;24.60;52.40
39189;DHT22;24915;50.858;4.376;2023-04-15T12:42:21;24.80;52.10
39189;DHT22;24915;50.858;4.376;2023-04-15T12:44:46;25.00;48.40
39189;DHT22;24915;50.858;4.376;2023-04-15T12:47:12;25.10;49.50
39189;DHT22;24915;50.858;4.376;2023-04-15T12:49:38;25.30;50.30
39189;DHT22;24915;50.858;4.376;2023-04-15T12:52:04;25.40;49.50
39189;DHT22;24915;50.858;4.376;2023-04-15T12:54:30;25.50;49.60
39189;DHT22;24915;50.858;4.376;2023-04-15T12:56:57;25.60;49.80
39189;DHT22;24915;50.858;4.376;2023-04-15T12:59:24;25.50;48.30
39189;DHT22;24915;50.858;4.376;2023-04-15T13:01:50;25.50;49.10
39189;DHT22;24915;50.858;4.376;2023-04-15T13:04:16;25.40;47.70
39189;DHT22;24915;50.858;4.376;2023-04-15T13:06:42;25.20;49.00
39189;DHT22;24915;50.858;4.376;2023-04-15T13:09:08;25.20;49.00
39189;DHT22;24915;50.858;4.376;2023-04-15T13:11:34;25.20;49.80
39189;DHT22;24915;50.858;4.376;2023-04-15T13:14:04;25.30;50.00
39189;DHT22;24915;50.858;4.376;2023-04-15T13:16:30;25.60;49.80
39189;DHT22;24915;50.858;4.376;2023-04-15T13:19:00;25.70;49.60
39189;DHT22;24915;50.858;4.376;2023-04-15T13:21:26;25.80;49.30
39189;DHT22;24915;50.858;4.376;2023-04-15T13:23:53;25.60;49.40
39189;DHT22;24915;50.858;4.376;2023-04-15T13:26:18;25.60;50.50
39189;DHT22;24915;50.858;4.376;2023-04-15T13:28:44;25.50;51.60
39189;DHT22;24915;50.858;4.376;2023-04-15T13:31:10;25.80;52.80
39189;DHT22;24915;50.858;4.376;2023-04-15T13:33:36;25.90;50.00
39189;DHT22;24915;50.858;4.376;2023-04-15T13:36:02;25.70;51.80
39189;DHT22;24915;50.858;4.376;2023-04-15T13:38:27;25.80;52.20
39189;DHT22;24915;50.858;4.376;2023-04-15T13:40:53;25.80;50.70
39189;DHT22;24915;50.858;4.376;2023-04-15T13:43:18;25.60;49.40
39189;DHT22;24915;50.858;4.376;2023-04-15T13:45:46;25.30;51.30
39189;DHT22;24915;50.858;4.376;2023-04-15T13:48:11;25.30;51.50
39189;DHT22;24915;50.858;4.376;2023-04-15T13:50:37;25.50;51.10
39189;DHT22;24915;50.858;4.376;2023-04-15T13:53:03;25.40;50.30
39189;DHT22;24915;50.858;4.376;2023-04-15T13:55:28;24.50;49.60
39189;DHT22;24915;50.858;4.376;2023-04-15T13:57:55;23.80;52.60
39189;DHT22;24915;50.858;4.376;2023-04-15T14:00:20;23.90;52.70
39189;DHT22;24915;50.858;4.376;2023-04-15T14:02:46;24.10;52.80
39189;DHT22;24915;50.858;4.376;2023-04-15T14:05:12;24.40;51.20
39189;DHT22;24915;50.858;4.376;2023-04-15T14:07:38;24.70;50.40
39189;DHT22;24915;50.858;4.376;2023-04-15T14:10:04;24.40;50.40
39189;DHT22;24915;50.858;4.376;2023-04-15T14:12:30;24.30;51.40
39189;DHT22;24915;50.858;4.376;2023-04-15T14:14:55;24.50;52.80
39189;DHT22;24915;50.858;4.376;2023-04-15T14:17:21;24.60;51.60
39189;DHT22;24915;50.858;4.376;2023-04-15T14:19:47;24.30;52.60
39189;DHT22;24915;50.858;4.376;2023-04-15T14:22:12;24.00;52.90
39189;DHT22;24915;50.858;4.376;2023-04-15T14:24:38;24.10;53.50
39189;DHT22;24915;50.858;4.376;2023-04-15T14:27:03;24.30;53.60
39189;DHT22;24915;50.858;4.376;2023-04-15T14:29:29;24.50;53.60
39189;DHT22;24915;50.858;4.376;2023-04-15T14:31:55;24.70;53.10
39189;DHT22;24915;50.858;4.376;2023-04-15T14:34:23;24.30;51.70
39189;DHT22;24915;50.858;4.376;2023-04-15T14:36:50;24.10;51.90
39189;DHT22;24915;50.858;4.376;2023-04-15T14:39:18;24.30;51.70
39189;DHT22;24915;50.858;4.376;2023-04-15T14:41:44;24.90;52.30
39189;DHT22;24915;50.858;4.376;2023-04-15T14:44:10;25.80;51.80
39189;DHT22;24915;50.858;4.376;2023-04-15T14:46:37;26.80;50.80
39189;DHT22;24915;50.858;4.376;2023-04-15T14:49:03;27.70;50.70
39189;DHT22;24915;50.858;4.376;2023-04-15T14:51:28;28.00;47.80
39189;DHT22;24915;50.858;4.376;2023-04-15T14:53:55;27.40;47.50
39189;DHT22;24915;50.858;4.376;2023-04-15T14:56:21;26.70;49.00
39189;DHT22;24915;50.858;4.376;2023-04-15T14:58:46;25.80;49.50
39189;DHT22;24915;50.858;4.376;2023-04-15T15:01:12;24.80;50.60
39189;DHT22;24915;50.858;4.376;2023-04-15T15:03:38;23.80;51.50
39189;DHT22;24915;50.858;4.376;2023-04-15T15:06:03;23.00;52.60
39189;DHT22;24915;50.858;4.376;2023-04-15T15:08:29;22.20;53.80
39189;DHT22;24915;50.858;4.376;2023-04-15T15:10:55;21.60;56.30
39189;DHT22;24915;50.858;4.376;2023-04-15T15:13:21;21.20;57.40
39189;DHT22;24915;50.858;4.376;2023-04-15T15:15:46;21.20;57.60
39189;DHT22;24915;50.858;4.376;2023-04-15T15:18:14;21.30;57.40
39189;DHT22;24915;50.858;4.376;2023-04-15T15:20:41;21.50;58.30
39189;DHT22;24915;50.858;4.376;2023-04-15T15:23:07;21.70;57.50
39189;DHT22;24915;50.858;4.376;2023-04-15T15:25:33;21.80;58.80
39189;DHT22;24915;50.858;4.376;2023-04-15T15:27:58;21.70;59.80
39189;DHT22;24915;50.858;4.376;2023-04-15T15:30:24;21.50;60.80
39189;DHT22;24915;50.858;4.376;2023-04-15T15:32:50;21.00;62.80
39189;DHT22;24915;50.858;4.376;2023-04-15T15:35:16;20.50;62.10
39189;DHT22;24915;50.858;4.376;2023-04-15T15:37:42;20.10;62.90
39189;DHT22;24915;50.858;4.376;2023-04-15T15:40:09;19.80;65.80
39189;DHT22;24915;50.858;4.376;2023-04-15T15:42:35;19.80;67.10
39189;DHT22;24915;50.858;4.376;2023-04-15T15:45:02;19.80;68.80
39189;DHT22;24915;50.858;4.376;2023-04-15T15:47:28;19.70;71.00
39189;DHT22;24915;50.858;4.376;2023-04-15T15:49:54;19.60;72.20
39189;DHT22;24915;50.858;4.376;2023-04-15T15:52:20;19.40;73.40
39189;DHT22;24915;50.858;4.376;2023-04-15T15:54:46;19.20;74.30
39189;DHT22;24915;50.858;4.376;2023-04-15T15:57:11;19.00;75.50